Time,TemperatureF,DewpointF,PressureIn,WindDirection,WindDirectionDegrees,WindSpeedMPH,WindSpeedGustMPH,Humidity,HourlyPrecipIn,Conditions,Clouds,dailyrainin,SolarRadiationWatts/m^2,SoftwareType,DateUTC
2013-02-04 00:00:00,39.5,25.1,29.91,East,96,0.0,-999.0,60,-99.99,,,0.00,0.0,cwc,2013-02-04 07:00:00,
2013-02-04 00:05:00,37.8,27.7,29.93,East,96,0.0,-999.0,72,-99.99,,,0.00,0.0,cwc,2013-02-04 07:05:00,
2013-02-04 00:10:00,39.3,28.1,29.93,East,96,0.0,-999.0,69,-99.99,,,0.00,0.0,cwc,2013-02-04 07:10:00,
2013-02-04 00:15:00,40.6,8.6,29.93,East,96,0.0,-999.0,11,-99.99,,,0.00,0.0,cwc,2013-02-04 07:15:00,
2013-02-04 00:20:00,36.9,26.8,29.92,East,96,0.0,-999.0,72,-99.99,,,0.00,0.0,cwc,2013-02-04 07:20:00,
2013-02-04 00:25:00,39.1,27.9,29.92,East,96,0.0,-999.0,69,-99.99,,,0.00,0.0,cwc,2013-02-04 07:25:00,
2013-02-04 00:30:00,43.8,8.5,29.92,East,96,0.0,-999.0,2,-99.99,,,0.00,0.0,cwc,2013-02-04 07:30:00,
2013-02-04 00:35:00,37.5,3.3,29.90,East,96,0.0,-999.0,5,-99.99,,,0.00,0.0,cwc,2013-02-04 07:35:00,
2013-02-04 00:40:00,38.0,38.0,29.90,East,96,0.0,-999.0,100,-99.99,,,0.00,0.0,cwc,2013-02-04 07:40:00,
2013-02-04 00:45:00,35.2,35.2,29.90,East,96,0.0,-999.0,100,-99.99,,,0.00,0.0,cwc,2013-02-04 07:45:00,
2013-02-04 00:50:00,34.9,34.9,29.93,East,96,0.0,-999.0,100,-99.99,,,0.00,0.0,cwc,2013-02-04 07:50:00,
2013-02-04 00:55:00,35.8,35.8,29.93,East,96,0.0,-999.0,100,-99.99,,,0.00,0.0,cwc,2013-02-04 07:55:00,
2013-02-04 01:00:00,34.7,34.7,29.93,East,96,0.0,-999.0,100,-99.99,,,0.00,0.0,cwc,2013-02-04 08:00:00,
2013-02-04 01:05:00,36.2,36.2,29.93,East,96,0.0,-999.0,100,-99.99,,,0.00,0.0,cwc,2013-02-04 08:05:00,
2013-02-04 01:10:00,33.8,33.8,29.93,East,96,0.0,-999.0,100,-99.99,,,0.00,0.0,cwc,2013-02-04 08:10:00,
2013-02-04 01:15:00,32.8,32.8,29.93,East,96,0.0,-999.0,100,-99.99,,,0.00,0.0,cwc,2013-02-04 08:15:00,
2013-02-04 01:20:00,32.1,32.1,29.95,East,96,0.0,-999.0,100,-99.99,,,0.00,0.0,cwc,2013-02-04 08:20:00,
2013-02-04 01:25:00,32.2,32.2,29.95,East,96,0.0,-999.0,100,-99.99,,,0.00,0.0,cwc,2013-02-04 08:25:00,
2013-02-04 01:30:00,34.6,34.6,29.95,East,96,0.0,-999.0,100,-99.99,,,0.00,0.0,cwc,2013-02-04 08:30:00,
2013-02-04 01:35:00,31.9,31.9,29.95,East,96,0.0,-999.0,100,-99.99,,,0.00,0.0,cwc,2013-02-04 08:35:00,
2013-02-04 01:40:00,32.2,32.2,29.95,East,96,0.0,-999.0,100,-99.99,,,0.00,0.0,cwc,2013-02-04 08:40:00,
2013-02-04 01:45:00,30.9,30.9,29.95,East,96,0.0,-999.0,100,-99.99,,,0.00,0.0,cwc,2013-02-04 08:45:00,
2013-02-04 01:50:00,30.3,30.3,29.98,East,96,0.0,-999.0,100,-99.99,,,0.00,0.0,cwc,2013-02-04 08:50:00,
2013-02-04 01:55:00,31.9,31.9,29.98,East,96,0.0,-999.0,100,-99.99,,,0.00,0.0,cwc,2013-02-04 08:55:00,
2013-02-04 02:00:00,31.2,31.2,29.98,East,96,0.0,-999.0,100,-99.99,,,0.00,0.0,cwc,2013-02-04 09:00:00,
2013-02-04 02:05:00,31.0,31.0,29.98,East,96,0.0,-999.0,100,-99.99,,,0.00,0.0,cwc,2013-02-04 09:05:00,
2013-02-04 02:10:00,30.0,30.0,29.98,East,96,0.0,-999.0,100,-99.99,,,0.00,0.0,cwc,2013-02-04 09:10:00,
2013-02-04 02:15:00,32.8,32.8,29.98,East,97,2.0,-999.0,100,-99.99,,,0.00,0.0,cwc,2013-02-04 09:15:00,
2013-02-04 02:20:00,30.4,-5.6,29.93,East,97,1.0,-999.0,0,-99.99,,,0.00,0.0,cwc,2013-02-04 09:20:00,
2013-02-04 02:25:00,29.1,-6.9,29.93,East,97,0.0,-999.0,0,-99.99,,,0.00,0.0,cwc,2013-02-04 09:25:00,
2013-02-04 02:30:00,28.7,-7.3,29.93,East,97,0.0,-999.0,0,-99.99,,,0.00,0.0,cwc,2013-02-04 09:30:00,
2013-02-04 02:35:00,28.7,-7.3,30.01,East,97,0.0,-999.0,0,-99.99,,,0.00,0.0,cwc,2013-02-04 09:35:00,
2013-02-04 02:40:00,34.6,-1.4,30.01,East,97,0.0,-999.0,0,-99.99,,,0.00,0.0,cwc,2013-02-04 09:40:00,
2013-02-04 02:45:00,35.9,35.9,30.01,East,97,0.0,-999.0,100,-99.99,,,0.00,0.0,cwc,2013-02-04 09:45:00,
2013-02-04 02:50:00,34.6,34.6,29.92,East,97,0.0,-999.0,100,-99.99,,,0.00,0.0,cwc,2013-02-04 09:50:00,
2013-02-04 02:55:00,31.6,-4.4,29.92,East,97,0.0,-999.0,0,-99.99,,,0.00,0.0,cwc,2013-02-04 09:55:00,
2013-02-04 03:00:00,33.2,23.1,29.92,East,97,0.0,-999.0,72,-99.99,,,0.00,0.0,cwc,2013-02-04 10:00:00,
2013-02-04 03:05:00,31.6,18.3,29.97,East,97,0.0,-999.0,63,-99.99,,,0.00,0.0,cwc,2013-02-04 10:05:00,
2013-02-04 03:10:00,29.8,-3.7,29.97,East,97,0.0,-999.0,7,-99.99,,,0.00,0.0,cwc,2013-02-04 10:10:00,
2013-02-04 03:15:00,28.8,-5.0,29.97,East,97,0.0,-999.0,6,-99.99,,,0.00,0.0,cwc,2013-02-04 10:15:00,
2013-02-04 03:20:00,35.8,32.2,30.03,East,97,0.0,-999.0,90,-99.99,,,0.00,0.0,cwc,2013-02-04 10:20:00,
2013-02-04 03:25:00,35.5,35.5,30.03,East,97,0.0,-999.0,100,-99.99,,,0.00,0.0,cwc,2013-02-04 10:25:00,
2013-02-04 03:30:00,31.2,29.8,30.03,East,97,0.0,-999.0,96,-99.99,,,0.00,0.0,cwc,2013-02-04 10:30:00,
2013-02-04 03:35:00,29.0,27.6,30.01,East,97,0.0,-999.0,96,-99.99,,,0.00,0.0,cwc,2013-02-04 10:35:00,
2013-02-04 03:40:00,28.5,0.4,30.01,East,97,4.0,-999.0,22,-99.99,,,0.00,0.0,cwc,2013-02-04 10:40:00,
2013-02-04 03:45:00,28.5,1.1,30.01,ESE,104,0.0,-999.0,24,-99.99,,,0.00,0.0,cwc,2013-02-04 10:45:00,
2013-02-04 03:50:00,28.5,-0.7,30.04,ESE,104,0.0,-999.0,19,-99.99,,,0.00,0.0,cwc,2013-02-04 10:50:00,
2013-02-04 03:55:00,27.5,-2.4,30.04,ESE,104,0.0,-999.0,17,-99.99,,,0.00,0.0,cwc,2013-02-04 10:55:00,
2013-02-04 04:00:00,27.3,-1.1,30.04,ESE,104,0.0,-999.0,21,-99.99,,,0.00,0.0,cwc,2013-02-04 11:00:00,
2013-02-04 04:05:00,27.5,0.9,30.06,ESE,104,0.0,-999.0,26,-99.99,,,0.00,0.0,cwc,2013-02-04 11:05:00,
2013-02-04 04:10:00,26.3,-2.5,30.06,ESE,104,0.0,-999.0,20,-99.99,,,0.00,0.0,cwc,2013-02-04 11:10:00,
2013-02-04 04:15:00,28.1,1.8,30.06,ESE,104,0.0,-999.0,27,-99.99,,,0.00,0.0,cwc,2013-02-04 11:15:00,
2013-02-04 04:20:00,31.9,18.6,30.05,ESE,104,0.0,-999.0,63,-99.99,,,0.00,0.0,cwc,2013-02-04 11:20:00,
2013-02-04 04:25:00,28.8,3.6,30.05,ESE,104,0.0,-999.0,30,-99.99,,,0.00,0.0,cwc,2013-02-04 11:25:00,
2013-02-04 04:30:00,28.2,5.5,30.05,ESE,104,0.0,-999.0,37,-99.99,,,0.00,0.0,cwc,2013-02-04 11:30:00,
2013-02-04 04:35:00,27.6,2.8,30.05,ESE,104,0.0,-999.0,31,-99.99,,,0.00,0.0,cwc,2013-02-04 11:35:00,
2013-02-04 04:40:00,28.8,6.5,30.05,ESE,104,0.0,-999.0,38,-99.99,,,0.00,0.0,cwc,2013-02-04 11:40:00,
2013-02-04 04:45:00,27.5,1.6,30.05,ESE,104,0.0,-999.0,28,-99.99,,,0.00,0.0,cwc,2013-02-04 11:45:00,
2013-02-04 04:50:00,29.1,1.4,30.01,ESE,104,0.0,-999.0,23,-99.99,,,0.00,0.0,cwc,2013-02-04 11:50:00,
2013-02-04 04:55:00,30.1,17.1,30.01,ESE,104,0.0,-999.0,64,-99.99,,,0.00,0.0,cwc,2013-02-04 11:55:00,
2013-02-04 05:00:00,28.2,13.4,30.01,ESE,104,0.0,-999.0,59,-99.99,,,0.00,0.0,cwc,2013-02-04 12:00:00,
2013-02-04 05:05:00,28.2,11.6,30.05,ESE,104,0.0,-999.0,54,-99.99,,,0.00,0.0,cwc,2013-02-04 12:05:00,
2013-02-04 05:10:00,30.9,14.0,30.05,ESE,104,0.0,-999.0,53,-99.99,,,0.00,0.0,cwc,2013-02-04 12:10:00,
2013-02-04 05:15:00,35.0,28.2,30.05,ESE,104,0.0,-999.0,81,-99.99,,,0.00,0.0,cwc,2013-02-04 12:15:00,
2013-02-04 05:20:00,31.0,26.0,30.01,ESE,104,0.0,-999.0,86,-99.99,,,0.00,0.0,cwc,2013-02-04 12:20:00,
2013-02-04 05:25:00,29.4,22.9,30.01,ESE,104,0.0,-999.0,82,-99.99,,,0.00,0.0,cwc,2013-02-04 12:25:00,
2013-02-04 05:30:00,26.0,4.0,30.01,ESE,104,0.0,-999.0,39,-99.99,,,0.00,0.0,cwc,2013-02-04 12:30:00,
2013-02-04 05:35:00,24.8,1.0,30.10,ESE,104,0.0,-999.0,34,-99.99,,,0.00,0.0,cwc,2013-02-04 12:35:00,
2013-02-04 05:40:00,24.5,0.7,30.10,ESE,104,2.0,-999.0,34,-99.99,,,0.00,0.0,cwc,2013-02-04 12:40:00,
2013-02-04 05:45:00,25.3,-3.1,30.10,ESE,104,0.0,-999.0,21,-99.99,,,0.00,0.0,cwc,2013-02-04 12:45:00,
2013-02-04 05:50:00,25.0,-1.6,30.12,ESE,104,0.0,-999.0,26,-99.99,,,0.00,0.0,cwc,2013-02-04 12:50:00,
2013-02-04 05:55:00,26.6,-4.4,30.12,ESE,104,0.0,-999.0,14,-99.99,,,0.00,0.0,cwc,2013-02-04 12:55:00,
2013-02-04 06:00:00,26.7,-1.7,30.12,ESE,104,0.0,-999.0,21,-99.99,,,0.00,0.0,cwc,2013-02-04 13:00:00,
2013-02-04 06:05:00,32.4,-3.6,30.10,ESE,104,0.0,-999.0,0,-99.99,,,0.00,0.0,cwc,2013-02-04 13:05:00,
2013-02-04 06:10:00,28.4,-7.6,30.10,ESE,104,0.0,-999.0,0,-99.99,,,0.00,0.0,cwc,2013-02-04 13:10:00,
2013-02-04 06:15:00,34.0,-2.0,30.10,ESE,104,0.0,-999.0,0,-99.99,,,0.00,0.0,cwc,2013-02-04 13:15:00,
2013-02-04 06:20:00,26.9,-9.1,30.11,ESE,104,0.0,-999.0,0,-99.99,,,0.00,0.0,cwc,2013-02-04 13:20:00,
2013-02-04 06:25:00,27.0,-9.0,30.11,ESE,104,0.0,-999.0,0,-99.99,,,0.00,0.0,cwc,2013-02-04 13:25:00,
2013-02-04 06:30:00,26.1,9.5,30.11,ESE,104,0.0,-999.0,54,-99.99,,,0.00,0.0,cwc,2013-02-04 13:30:00,
2013-02-04 06:35:00,27.9,9.5,30.14,ESE,104,0.0,-999.0,49,-99.99,,,0.00,0.0,cwc,2013-02-04 13:35:00,
2013-02-04 06:40:00,26.4,8.4,30.14,ESE,104,0.0,-999.0,50,-99.99,,,0.00,0.0,cwc,2013-02-04 13:40:00,
2013-02-04 06:45:00,29.3,-6.7,30.14,ESE,104,0.0,-999.0,0,-99.99,,,0.00,0.0,cwc,2013-02-04 13:45:00,
2013-02-04 06:50:00,29.0,-7.0,30.12,ESE,104,0.0,-999.0,0,-99.99,,,0.00,0.0,cwc,2013-02-04 13:50:00,
2013-02-04 06:55:00,27.9,-8.1,30.12,ESE,104,0.0,-999.0,0,-99.99,,,0.00,0.0,cwc,2013-02-04 13:55:00,
2013-02-04 07:00:00,28.5,-7.5,30.12,ESE,104,0.0,-999.0,0,-99.99,,,0.00,0.0,cwc,2013-02-04 14:00:00,
2013-02-04 07:05:00,33.7,-2.3,30.14,ESE,104,0.0,-999.0,0,-99.99,,,0.00,0.0,cwc,2013-02-04 14:05:00,
2013-02-04 07:10:00,32.5,-3.5,30.14,ESE,104,0.0,-999.0,0,-99.99,,,0.00,0.0,cwc,2013-02-04 14:10:00,
2013-02-04 07:15:00,31.5,-3.1,30.14,ESE,104,0.0,-999.0,4,-99.99,,,0.00,0.0,cwc,2013-02-04 14:15:00,
2013-02-04 07:20:00,30.3,-5.7,30.07,ESE,104,0.0,-999.0,0,-99.99,,,0.00,0.0,cwc,2013-02-04 14:20:00,
2013-02-04 07:25:00,28.7,-7.3,30.07,ESE,104,0.0,-999.0,0,-99.99,,,0.00,0.0,cwc,2013-02-04 14:25:00,
2013-02-04 07:30:00,26.1,-9.9,30.07,ESE,104,0.0,-999.0,0,-99.99,,,0.00,0.0,cwc,2013-02-04 14:30:00,
2013-02-04 07:35:00,25.4,2.0,30.16,ESE,104,0.0,-999.0,35,-99.99,,,0.00,0.0,cwc,2013-02-04 14:35:00,
2013-02-04 07:40:00,30.1,6.7,30.16,ESE,104,0.0,-999.0,35,-99.99,,,0.00,0.0,cwc,2013-02-04 14:40:00,
2013-02-04 07:45:00,28.2,-7.4,30.16,ESE,104,0.0,-999.0,1,-99.99,,,0.00,0.0,cwc,2013-02-04 14:45:00,
2013-02-04 07:50:00,27.2,-2.0,30.15,ESE,104,0.0,-999.0,19,-99.99,,,0.00,0.0,cwc,2013-02-04 14:50:00,
2013-02-04 07:55:00,26.0,-3.2,30.15,ESE,104,0.0,-999.0,19,-99.99,,,0.00,0.0,cwc,2013-02-04 14:55:00,
2013-02-04 08:00:00,28.2,1.9,30.15,ESE,104,0.0,-999.0,27,-99.99,,,0.00,0.0,cwc,2013-02-04 15:00:00,
2013-02-04 08:05:00,27.2,0.9,30.15,ESE,104,0.0,-999.0,27,-99.99,,,0.00,0.0,cwc,2013-02-04 15:05:00,
2013-02-04 08:10:00,26.7,26.7,30.15,ESE,104,0.0,-999.0,100,-99.99,,,0.00,0.0,cwc,2013-02-04 15:10:00,
2013-02-04 08:15:00,26.9,26.9,30.15,ESE,104,0.0,-999.0,100,-99.99,,,0.00,0.0,cwc,2013-02-04 15:15:00,
2013-02-04 08:20:00,26.9,26.9,30.15,ESE,104,0.0,-999.0,100,-99.99,,,0.00,0.0,cwc,2013-02-04 15:20:00,
2013-02-04 08:25:00,27.3,27.3,30.15,ESE,104,0.0,-999.0,100,-99.99,,,0.00,0.0,cwc,2013-02-04 15:25:00,
2013-02-04 08:30:00,28.7,28.7,30.15,ESE,104,0.0,-999.0,100,-99.99,,,0.00,0.0,cwc,2013-02-04 15:30:00,
2013-02-04 08:35:00,31.5,31.5,30.15,ESE,104,0.0,-999.0,100,-99.99,,,0.00,0.0,cwc,2013-02-04 15:35:00,
2013-02-04 08:40:00,30.7,30.7,30.15,ESE,104,0.0,-999.0,100,-99.99,,,0.00,0.0,cwc,2013-02-04 15:40:00,
2013-02-04 08:45:00,31.0,31.0,30.15,ESE,104,0.0,-999.0,100,-99.99,,,0.00,0.0,cwc,2013-02-04 15:45:00,
2013-02-04 08:50:00,31.3,31.3,30.12,ESE,104,0.0,-999.0,100,-99.99,,,0.00,0.0,cwc,2013-02-04 15:50:00,
2013-02-04 08:55:00,32.8,32.8,30.12,ESE,104,0.0,-999.0,100,-99.99,,,0.00,0.0,cwc,2013-02-04 15:55:00,
2013-02-04 09:00:00,32.2,-1.3,30.12,ESE,104,0.0,-999.0,7,-99.99,,,0.00,0.0,cwc,2013-02-04 16:00:00,
2013-02-04 09:05:00,33.2,7.6,30.14,ESE,104,0.0,-999.0,29,-99.99,,,0.00,0.0,cwc,2013-02-04 16:05:00,
2013-02-04 09:10:00,33.5,5.8,30.14,SE,133,2.0,-999.0,23,-99.99,,,0.00,0.0,cwc,2013-02-04 16:10:00,
2013-02-04 09:15:00,33.2,33.2,30.14,NNE,21,0.0,-999.0,100,-99.99,,,0.00,0.0,cwc,2013-02-04 16:15:00,
2013-02-04 09:20:00,33.7,15.3,30.12,NE,38,2.0,-999.0,49,-99.99,,,0.00,0.0,cwc,2013-02-04 16:20:00,
2013-02-04 09:25:00,34.0,5.6,30.12,NNE,28,9.0,-999.0,21,-99.99,,,0.00,0.0,cwc,2013-02-04 16:25:00,
2013-02-04 09:30:00,34.4,4.2,30.12,NE,48,7.0,-999.0,16,-99.99,,,0.00,0.0,cwc,2013-02-04 16:30:00,
2013-02-04 09:35:00,34.9,4.7,30.13,NE,54,10.0,-999.0,16,-99.99,,,0.00,0.0,cwc,2013-02-04 16:35:00,
2013-02-04 09:40:00,35.5,5.3,30.13,NE,47,8.0,-999.0,16,-99.99,,,0.00,0.0,cwc,2013-02-04 16:40:00,
2013-02-04 09:45:00,35.8,5.9,30.13,NE,38,9.0,-999.0,17,-99.99,,,0.00,0.0,cwc,2013-02-04 16:45:00,
2013-02-04 09:50:00,36.0,20.5,30.07,NNE,25,8.0,-999.0,57,-99.99,,,0.00,0.0,cwc,2013-02-04 16:50:00,
2013-02-04 10:00:00,37.2,20.6,30.07,NE,47,8.0,-999.0,54,-99.99,,,0.00,0.0,cwc,2013-02-04 17:00:00,
2013-02-04 10:05:00,37.5,20.6,30.11,NE,34,2.0,-999.0,53,-99.99,,,0.00,0.0,cwc,2013-02-04 17:05:00,
2013-02-04 10:15:00,38.3,20.7,30.11,NE,41,4.0,-999.0,51,-99.99,,,0.00,0.0,cwc,2013-02-04 17:15:00,
2013-02-04 10:20:00,38.5,21.2,30.07,NE,41,8.0,-999.0,52,-99.99,,,0.00,0.0,cwc,2013-02-04 17:20:00,
2013-02-04 10:25:00,39.2,21.9,30.07,NNE,31,7.0,-999.0,52,-99.99,,,0.00,0.0,cwc,2013-02-04 17:25:00,
2013-02-04 10:30:00,39.6,21.2,30.07,NE,47,4.0,-999.0,49,-99.99,,,0.00,0.0,cwc,2013-02-04 17:30:00,
2013-02-04 10:35:00,40.1,22.5,30.06,NE,34,6.0,-999.0,51,-99.99,,,0.00,0.0,cwc,2013-02-04 17:35:00,
2013-02-04 10:40:00,40.3,21.2,30.06,NE,40,6.0,-999.0,47,-99.99,,,0.00,0.0,cwc,2013-02-04 17:40:00,
2013-02-04 10:45:00,40.8,21.7,30.06,NE,40,6.0,-999.0,47,-99.99,,,0.00,0.0,cwc,2013-02-04 17:45:00,
2013-02-04 10:50:00,40.6,21.2,30.05,NE,37,0.0,-999.0,46,-99.99,,,0.00,0.0,cwc,2013-02-04 17:50:00,
2013-02-04 10:55:00,41.2,22.1,30.05,NE,40,6.0,-999.0,47,-99.99,,,0.00,0.0,cwc,2013-02-04 17:55:00,
2013-02-04 11:00:00,41.2,21.4,30.05,NE,40,0.0,-999.0,45,-99.99,,,0.00,0.0,cwc,2013-02-04 18:00:00,
2013-02-04 11:05:00,41.6,21.1,30.04,NE,40,4.0,-999.0,43,-99.99,,,0.00,0.0,cwc,2013-02-04 18:05:00,
2013-02-04 11:10:00,42.3,21.1,30.04,NE,47,7.0,-999.0,41,-99.99,,,0.00,0.0,cwc,2013-02-04 18:10:00,
2013-02-04 11:15:00,42.5,21.6,30.04,NNE,31,8.0,-999.0,42,-99.99,,,0.00,0.0,cwc,2013-02-04 18:15:00,
2013-02-04 11:20:00,43.1,21.1,30.02,NNE,31,1.0,-999.0,39,-99.99,,,0.00,0.0,cwc,2013-02-04 18:20:00,
2013-02-04 11:25:00,43.3,22.1,30.02,NE,38,4.0,-999.0,41,-99.99,,,0.00,0.0,cwc,2013-02-04 18:25:00,
2013-02-04 11:30:00,43.8,21.5,30.02,North,3,0.0,-999.0,38,-99.99,,,0.00,0.0,cwc,2013-02-04 18:30:00,
2013-02-04 11:35:00,44.6,22.6,30.02,NNE,14,0.0,-999.0,39,-99.99,,,0.00,0.0,cwc,2013-02-04 18:35:00,
2013-02-04 11:40:00,46.5,23.5,30.02,NNE,13,0.0,-999.0,36,-99.99,,,0.00,0.0,cwc,2013-02-04 18:40:00,
2013-02-04 11:45:00,45.8,22.8,30.02,NNE,13,0.0,-999.0,36,-99.99,,,0.00,0.0,cwc,2013-02-04 18:45:00,
2013-02-04 11:50:00,46.8,23.4,30.00,NNE,13,0.0,-999.0,35,-99.99,,,0.00,0.0,cwc,2013-02-04 18:50:00,
2013-02-04 11:55:00,48.2,25.5,30.00,NNE,13,0.0,-999.0,37,-99.99,,,0.00,0.0,cwc,2013-02-04 18:55:00,
2013-02-04 12:00:00,48.5,24.4,30.00,NNE,14,0.0,-999.0,33,-99.99,,,0.00,0.0,cwc,2013-02-04 19:00:00,
2013-02-04 12:05:00,50.4,28.1,29.96,NE,38,0.0,-999.0,38,-99.99,,,0.00,0.0,cwc,2013-02-04 19:05:00,
2013-02-04 12:10:00,49.6,24.0,29.96,ESE,112,2.0,-999.0,29,-99.99,,,0.00,0.0,cwc,2013-02-04 19:10:00,
2013-02-04 12:15:00,49.6,24.4,29.96,ESE,112,0.0,-999.0,30,-99.99,,,0.00,0.0,cwc,2013-02-04 19:15:00,
2013-02-04 12:20:00,50.1,26.3,29.99,SW,220,4.0,-999.0,34,-99.99,,,0.00,0.0,cwc,2013-02-04 19:20:00,
2013-02-04 12:25:00,50.8,24.9,29.99,SSE,151,1.0,-999.0,28,-99.99,,,0.00,0.0,cwc,2013-02-04 19:25:00,
2013-02-04 12:30:00,51.9,28.1,29.99,SSE,160,0.0,-999.0,34,-99.99,,,0.00,0.0,cwc,2013-02-04 19:30:00,
2013-02-04 12:35:00,52.9,27.0,29.96,SSE,161,2.0,-999.0,28,-99.99,,,0.00,0.0,cwc,2013-02-04 19:35:00,
2013-02-04 12:40:00,52.5,26.2,29.96,SSE,160,0.0,-999.0,27,-99.99,,,0.00,0.0,cwc,2013-02-04 19:40:00,
2013-02-04 12:45:00,52.6,26.0,29.96,West,263,2.0,-999.0,26,-99.99,,,0.00,0.0,cwc,2013-02-04 19:45:00,
2013-02-04 12:50:00,52.3,25.7,29.95,West,264,0.0,-999.0,26,-99.99,,,0.00,0.0,cwc,2013-02-04 19:50:00,
2013-02-04 12:55:00,52.0,25.4,29.95,West,264,0.0,-999.0,26,-99.99,,,0.00,0.0,cwc,2013-02-04 19:55:00,
2013-02-04 13:00:00,53.5,26.9,29.95,WSW,257,0.0,-999.0,26,-99.99,,,0.00,0.0,cwc,2013-02-04 20:00:00,
2013-02-04 13:05:00,53.2,25.8,29.94,NNW,330,4.0,-999.0,24,-99.99,,,0.00,0.0,cwc,2013-02-04 20:05:00,
2013-02-04 13:10:00,52.6,25.6,29.94,NNW,337,0.0,-999.0,25,-99.99,,,0.00,0.0,cwc,2013-02-04 20:10:00,
2013-02-04 13:15:00,53.5,26.5,29.94,NNW,337,2.0,-999.0,25,-99.99,,,0.00,0.0,cwc,2013-02-04 20:15:00,
2013-02-04 13:20:00,53.1,26.1,29.94,NNW,333,0.0,-999.0,25,-99.99,,,0.00,0.0,cwc,2013-02-04 20:20:00,
2013-02-04 13:25:00,53.5,26.1,29.94,WNW,301,0.0,-999.0,24,-99.99,,,0.00,0.0,cwc,2013-02-04 20:25:00,
2013-02-04 13:30:00,53.8,27.2,29.94,NW,306,1.0,-999.0,26,-99.99,,,0.00,0.0,cwc,2013-02-04 20:30:00,
2013-02-04 13:40:00,53.6,25.9,29.92,NW,305,0.0,-999.0,23,-99.99,,,0.00,0.0,cwc,2013-02-04 20:40:00,
2013-02-04 13:45:00,54.5,26.8,29.92,NW,308,0.0,-999.0,23,-99.99,,,0.00,0.0,cwc,2013-02-04 20:45:00,
2013-02-04 13:50:00,54.5,26.8,29.91,WSW,243,7.0,-999.0,23,-99.99,,,0.00,0.0,cwc,2013-02-04 20:50:00,
2013-02-04 13:55:00,55.4,27.0,29.91,WSW,237,4.0,-999.0,21,-99.99,,,0.00,0.0,cwc,2013-02-04 20:55:00,
2013-02-04 14:00:00,55.0,26.2,29.91,SW,234,4.0,-999.0,20,-99.99,,,0.00,0.0,cwc,2013-02-04 21:00:00,
2013-02-04 14:05:00,54.7,26.3,29.90,SW,227,9.0,-999.0,21,-99.99,,,0.00,0.0,cwc,2013-02-04 21:05:00,
2013-02-04 14:10:00,54.8,26.0,29.90,South,189,0.0,-999.0,20,-99.99,,,0.00,0.0,cwc,2013-02-04 21:10:00,
2013-02-04 14:15:00,54.1,25.3,29.90,SW,229,8.0,-999.0,20,-99.99,,,0.00,0.0,cwc,2013-02-04 21:15:00,
2013-02-04 14:20:00,53.8,25.4,29.88,WSW,251,4.0,-999.0,21,-99.99,,,0.00,0.0,cwc,2013-02-04 21:20:00,
2013-02-04 14:25:00,55.0,25.8,29.88,SW,233,0.0,-999.0,19,-99.99,,,0.00,0.0,cwc,2013-02-04 21:25:00,
2013-02-04 14:30:00,54.7,25.9,29.88,WSW,240,0.0,-999.0,20,-99.99,,,0.00,0.0,cwc,2013-02-04 21:30:00,
2013-02-04 14:35:00,54.7,25.9,29.88,SW,219,10.0,-999.0,20,-99.99,,,0.00,0.0,cwc,2013-02-04 21:35:00,
2013-02-04 14:40:00,54.8,26.0,29.88,West,280,0.0,-999.0,20,-99.99,,,0.00,0.0,cwc,2013-02-04 21:40:00,
2013-02-04 14:45:00,55.0,25.8,29.88,WSW,253,8.0,-999.0,19,-99.99,,,0.00,0.0,cwc,2013-02-04 21:45:00,
2013-02-04 14:50:00,54.2,25.4,29.87,SW,230,8.0,-999.0,20,-99.99,,,0.00,0.0,cwc,2013-02-04 21:50:00,
2013-02-04 14:55:00,54.8,26.0,29.87,SW,233,7.0,-999.0,20,-99.99,,,0.00,0.0,cwc,2013-02-04 21:55:00,
2013-02-04 15:00:00,54.5,26.4,29.87,SSW,209,0.0,-999.0,22,-99.99,,,0.00,0.0,cwc,2013-02-04 22:00:00,
2013-02-04 15:05:00,54.8,26.4,29.87,NW,306,4.0,-999.0,21,-99.99,,,0.00,0.0,cwc,2013-02-04 22:05:00,
2013-02-04 15:10:00,54.8,26.4,29.87,South,175,4.0,-999.0,21,-99.99,,,0.00,0.0,cwc,2013-02-04 22:10:00,
2013-02-04 15:15:00,55.6,30.0,29.87,SW,233,6.0,-999.0,29,-99.99,,,0.00,0.0,cwc,2013-02-04 22:15:00,
2013-02-04 15:20:00,55.0,27.3,29.89,SSW,202,13.0,-999.0,23,-99.99,,,0.00,0.0,cwc,2013-02-04 22:20:00,
2013-02-04 15:25:00,55.0,29.1,29.89,SSW,203,8.0,-999.0,28,-99.99,,,0.00,0.0,cwc,2013-02-04 22:25:00,
2013-02-04 15:30:00,55.0,27.6,29.89,SW,230,7.0,-999.0,24,-99.99,,,0.00,0.0,cwc,2013-02-04 22:30:00,
2013-02-04 15:35:00,54.7,28.1,29.89,SW,227,8.0,-999.0,26,-99.99,,,0.00,0.0,cwc,2013-02-04 22:35:00,
2013-02-04 15:40:00,54.5,28.6,29.89,SW,234,6.0,-999.0,28,-99.99,,,0.00,0.0,cwc,2013-02-04 22:40:00,
2013-02-04 15:45:00,53.9,27.6,29.89,SW,230,14.0,-999.0,27,-99.99,,,0.00,0.0,cwc,2013-02-04 22:45:00,
2013-02-04 15:50:00,53.6,27.3,29.90,WSW,241,14.0,-999.0,27,-99.99,,,0.00,0.0,cwc,2013-02-04 22:50:00,
2013-02-04 15:55:00,54.2,28.3,29.90,SSE,162,8.0,-999.0,28,-99.99,,,0.00,0.0,cwc,2013-02-04 22:55:00,
2013-02-04 16:00:00,54.1,27.1,29.90,SSW,210,8.0,-999.0,25,-99.99,,,0.00,0.0,cwc,2013-02-04 23:00:00,
2013-02-04 16:05:00,54.2,27.6,29.90,West,275,7.0,-999.0,26,-99.99,,,0.00,0.0,cwc,2013-02-04 23:05:00,
2013-02-04 16:10:00,53.8,27.2,29.90,SW,230,13.0,-999.0,26,-99.99,,,0.00,0.0,cwc,2013-02-04 23:10:00,
2013-02-04 16:15:00,53.8,26.8,29.90,SW,224,6.0,-999.0,25,-99.99,,,0.00,0.0,cwc,2013-02-04 23:15:00,
2013-02-04 16:20:00,54.4,27.4,29.90,WSW,240,9.0,-999.0,25,-99.99,,,0.00,0.0,cwc,2013-02-04 23:20:00,
2013-02-04 16:25:00,53.8,26.8,29.90,SW,230,1.0,-999.0,25,-99.99,,,0.00,0.0,cwc,2013-02-04 23:25:00,
2013-02-04 16:30:00,53.9,26.9,29.90,South,182,6.0,-999.0,25,-99.99,,,0.00,0.0,cwc,2013-02-04 23:30:00,
2013-02-04 16:35:00,53.5,26.5,29.90,SW,233,8.0,-999.0,25,-99.99,,,0.00,0.0,cwc,2013-02-04 23:35:00,
2013-02-04 16:40:00,53.6,27.0,29.90,WSW,237,4.0,-999.0,26,-99.99,,,0.00,0.0,cwc,2013-02-04 23:40:00,
2013-02-04 16:45:00,53.6,27.7,29.90,SW,220,6.0,-999.0,28,-99.99,,,0.00,0.0,cwc,2013-02-04 23:45:00,
2013-02-04 16:50:00,53.2,26.9,29.90,South,186,0.0,-999.0,27,-99.99,,,0.00,0.0,cwc,2013-02-04 23:50:00,
2013-02-04 16:55:00,53.1,27.2,29.90,SSW,193,6.0,-999.0,28,-99.99,,,0.00,0.0,cwc,2013-02-04 23:55:00,
2013-02-04 17:00:00,52.5,26.6,29.90,WSW,240,2.0,-999.0,28,-99.99,,,0.00,0.0,cwc,2013-02-05 00:00:00,
2013-02-04 17:05:00,52.0,26.1,29.92,WNW,287,4.0,-999.0,28,-99.99,,,0.00,0.0,cwc,2013-02-05 00:05:00,
2013-02-04 17:10:00,51.0,25.4,29.92,WSW,247,6.0,-999.0,29,-99.99,,,0.00,0.0,cwc,2013-02-05 00:10:00,
2013-02-04 17:15:00,50.5,24.6,29.92,WNW,289,10.0,-999.0,28,-99.99,,,0.00,0.0,cwc,2013-02-05 00:15:00,
2013-02-04 17:20:00,49.9,22.9,29.88,West,274,7.0,-999.0,25,-99.99,,,0.00,0.0,cwc,2013-02-05 00:20:00,
2013-02-04 17:25:00,49.5,22.5,29.88,West,268,8.0,-999.0,25,-99.99,,,0.00,0.0,cwc,2013-02-05 00:25:00,
2013-02-04 17:30:00,49.2,22.6,29.88,WSW,250,10.0,-999.0,26,-99.99,,,0.00,0.0,cwc,2013-02-05 00:30:00,
2013-02-04 17:35:00,48.8,22.2,29.89,WSW,257,7.0,-999.0,26,-99.99,,,0.00,0.0,cwc,2013-02-05 00:35:00,
2013-02-04 17:40:00,48.5,21.9,29.89,West,265,10.0,-999.0,26,-99.99,,,0.00,0.0,cwc,2013-02-05 00:40:00,
2013-02-04 17:45:00,48.2,23.0,29.89,West,260,9.0,-999.0,30,-99.99,,,0.00,0.0,cwc,2013-02-05 00:45:00,
2013-02-04 17:50:00,48.0,22.8,29.90,NW,304,10.0,-999.0,30,-99.99,,,0.00,0.0,cwc,2013-02-05 00:50:00,
2013-02-04 18:00:00,47.3,22.8,29.90,SW,222,15.0,-999.0,32,-99.99,,,0.00,0.0,cwc,2013-02-05 01:00:00,
2013-02-04 18:05:00,47.4,21.5,29.92,West,277,9.0,-999.0,28,-99.99,,,0.00,0.0,cwc,2013-02-05 01:05:00,
2013-02-04 18:10:00,47.1,20.8,29.92,WSW,241,8.0,-999.0,27,-99.99,,,0.00,0.0,cwc,2013-02-05 01:10:00,
2013-02-04 18:15:00,46.4,20.5,29.92,SW,230,7.0,-999.0,28,-99.99,,,0.00,0.0,cwc,2013-02-05 01:15:00,
2013-02-04 18:20:00,46.0,20.4,30.01,SSW,208,7.0,-999.0,29,-99.99,,,0.00,0.0,cwc,2013-02-05 01:20:00,
2013-02-04 18:25:00,45.7,20.1,30.01,SW,227,4.0,-999.0,29,-99.99,,,0.00,0.0,cwc,2013-02-05 01:25:00,
2013-02-04 18:30:00,45.2,20.0,30.01,SW,232,1.0,-999.0,30,-99.99,,,0.00,0.0,cwc,2013-02-05 01:30:00,
2013-02-04 18:35:00,45.8,21.3,30.02,WSW,241,0.0,-999.0,32,-99.99,,,0.00,0.0,cwc,2013-02-05 01:35:00,
2013-02-04 18:40:00,45.7,22.7,30.02,SW,233,0.0,-999.0,36,-99.99,,,0.00,0.0,cwc,2013-02-05 01:40:00,
2013-02-04 18:45:00,45.2,20.4,30.02,SW,233,0.0,-999.0,31,-99.99,,,0.00,0.0,cwc,2013-02-05 01:45:00,
2013-02-04 18:50:00,45.4,25.6,30.02,SW,233,0.0,-999.0,45,-99.99,,,0.00,0.0,cwc,2013-02-05 01:50:00,
2013-02-04 18:55:00,46.0,27.6,30.02,SSW,199,6.0,-999.0,49,-99.99,,,0.00,0.0,cwc,2013-02-05 01:55:00,
2013-02-04 19:00:00,44.8,21.4,30.02,SW,219,8.0,-999.0,35,-99.99,,,0.00,0.0,cwc,2013-02-05 02:00:00,
2013-02-04 19:05:00,44.3,20.9,30.02,SW,234,6.0,-999.0,35,-99.99,,,0.00,0.0,cwc,2013-02-05 02:05:00,
2013-02-04 19:10:00,44.2,21.5,30.02,WSW,243,6.0,-999.0,37,-99.99,,,0.00,0.0,cwc,2013-02-05 02:10:00,
2013-02-04 19:15:00,44.1,21.4,30.02,WSW,237,7.0,-999.0,37,-99.99,,,0.00,0.0,cwc,2013-02-05 02:15:00,
2013-02-04 19:20:00,43.8,20.4,30.02,WSW,241,4.0,-999.0,35,-99.99,,,0.00,0.0,cwc,2013-02-05 02:20:00,
2013-02-04 19:25:00,43.6,20.6,30.02,West,267,2.0,-999.0,36,-99.99,,,0.00,0.0,cwc,2013-02-05 02:25:00,
2013-02-04 19:30:00,43.6,21.6,30.02,West,267,0.0,-999.0,39,-99.99,,,0.00,0.0,cwc,2013-02-05 02:30:00,
2013-02-04 19:35:00,43.5,21.2,30.02,West,264,0.0,-999.0,38,-99.99,,,0.00,0.0,cwc,2013-02-05 02:35:00,
2013-02-04 19:40:00,43.5,20.8,30.02,NE,41,2.0,-999.0,37,-99.99,,,0.00,0.0,cwc,2013-02-05 02:40:00,
2013-02-04 19:45:00,43.5,20.5,30.02,WSW,240,0.0,-999.0,36,-99.99,,,0.00,0.0,cwc,2013-02-05 02:45:00,
2013-02-04 19:50:00,43.3,21.0,30.04,WSW,240,0.0,-999.0,38,-99.99,,,0.00,0.0,cwc,2013-02-05 02:50:00,
2013-02-04 19:55:00,43.3,21.3,30.04,SW,236,8.0,-999.0,39,-99.99,,,0.00,0.0,cwc,2013-02-05 02:55:00,
2013-02-04 20:00:00,43.5,21.2,30.04,SW,217,7.0,-999.0,38,-99.99,,,0.00,0.0,cwc,2013-02-05 03:00:00,
2013-02-04 20:05:00,43.8,22.6,30.03,SSW,209,0.0,-999.0,41,-99.99,,,0.00,0.0,cwc,2013-02-05 03:05:00,
2013-02-04 20:10:00,43.5,21.2,30.03,SW,226,0.0,-999.0,38,-99.99,,,0.00,0.0,cwc,2013-02-05 03:10:00,
2013-02-04 20:15:00,43.2,20.9,30.03,WNW,294,4.0,-999.0,38,-99.99,,,0.00,0.0,cwc,2013-02-05 03:15:00,
2013-02-04 20:20:00,43.3,20.3,30.03,WNW,294,0.0,-999.0,36,-99.99,,,0.00,0.0,cwc,2013-02-05 03:20:00,
2013-02-04 20:25:00,42.5,23.4,30.03,SW,230,6.0,-999.0,47,-99.99,,,0.00,0.0,cwc,2013-02-05 03:25:00,
2013-02-04 20:30:00,42.1,20.5,30.03,SW,217,9.0,-999.0,40,-99.99,,,0.00,0.0,cwc,2013-02-05 03:30:00,
2013-02-04 20:35:00,42.3,21.4,30.04,SW,233,0.0,-999.0,42,-99.99,,,0.00,0.0,cwc,2013-02-05 03:35:00,
2013-02-04 20:40:00,42.1,20.1,30.04,SW,233,0.0,-999.0,39,-99.99,,,0.00,0.0,cwc,2013-02-05 03:40:00,
2013-02-04 20:45:00,41.9,21.7,30.04,WSW,253,7.0,-999.0,44,-99.99,,,0.00,0.0,cwc,2013-02-05 03:45:00,
2013-02-04 20:50:00,41.8,21.6,30.04,WNW,292,8.0,-999.0,44,-99.99,,,0.00,0.0,cwc,2013-02-05 03:50:00,
2013-02-04 20:55:00,41.6,20.7,30.04,WNW,295,6.0,-999.0,42,-99.99,,,0.00,0.0,cwc,2013-02-05 03:55:00,
2013-02-04 21:00:00,41.5,21.0,30.04,NNE,14,1.0,-999.0,43,-99.99,,,0.00,0.0,cwc,2013-02-05 04:00:00,
2013-02-04 21:05:00,40.8,20.6,30.06,NE,34,0.0,-999.0,44,-99.99,,,0.00,0.0,cwc,2013-02-05 04:05:00,
2013-02-04 21:10:00,40.1,19.6,30.06,NE,34,0.0,-999.0,43,-99.99,,,0.00,0.0,cwc,2013-02-05 04:10:00,
2013-02-04 21:15:00,39.3,19.5,30.06,NE,34,0.0,-999.0,45,-99.99,,,0.00,0.0,cwc,2013-02-05 04:15:00,
2013-02-04 21:20:00,39.6,24.5,30.04,NE,34,0.0,-999.0,58,-99.99,,,0.00,0.0,cwc,2013-02-05 04:20:00,
2013-02-04 21:25:00,38.9,19.8,30.04,ESE,106,0.0,-999.0,47,-99.99,,,0.00,0.0,cwc,2013-02-05 04:25:00,
2013-02-04 21:30:00,39.8,22.5,30.04,ESE,106,0.0,-999.0,52,-99.99,,,0.00,0.0,cwc,2013-02-05 04:30:00,
2013-02-04 21:35:00,40.3,28.4,30.03,ESE,106,2.0,-999.0,67,-99.99,,,0.00,0.0,cwc,2013-02-05 04:35:00,
2013-02-04 21:40:00,39.2,21.2,30.03,ESE,107,0.0,-999.0,50,-99.99,,,0.00,0.0,cwc,2013-02-05 04:40:00,
2013-02-04 21:45:00,37.9,20.3,30.03,ESE,107,0.0,-999.0,51,-99.99,,,0.00,0.0,cwc,2013-02-05 04:45:00,
2013-02-04 21:50:00,37.8,20.5,30.05,ESE,107,0.0,-999.0,52,-99.99,,,0.00,0.0,cwc,2013-02-05 04:50:00,
2013-02-04 21:55:00,37.8,22.7,30.05,ESE,107,2.0,-999.0,58,-99.99,,,0.00,0.0,cwc,2013-02-05 04:55:00,
2013-02-04 22:00:00,37.0,20.4,30.05,ESE,107,0.0,-999.0,54,-99.99,,,0.00,0.0,cwc,2013-02-05 05:00:00,
2013-02-04 22:05:00,36.5,19.6,30.04,ESE,107,0.0,-999.0,53,-99.99,,,0.00,0.0,cwc,2013-02-05 05:05:00,
2013-02-04 22:10:00,35.6,19.4,30.04,ESE,107,2.0,-999.0,55,-99.99,,,0.00,0.0,cwc,2013-02-05 05:10:00,
2013-02-04 22:15:00,35.2,19.0,30.04,East,88,2.0,-999.0,55,-99.99,,,0.00,0.0,cwc,2013-02-05 05:15:00,
2013-02-04 22:20:00,34.9,19.1,30.04,East,88,4.0,-999.0,56,-99.99,,,0.00,0.0,cwc,2013-02-05 05:20:00,
2013-02-04 22:25:00,34.6,18.8,30.04,East,88,4.0,-999.0,56,-99.99,,,0.00,0.0,cwc,2013-02-05 05:25:00,
2013-02-04 22:30:00,34.4,18.6,30.04,East,88,0.0,-999.0,56,-99.99,,,0.00,0.0,cwc,2013-02-05 05:30:00,
2013-02-04 22:35:00,34.3,18.5,30.04,East,88,4.0,-999.0,56,-99.99,,,0.00,0.0,cwc,2013-02-05 05:35:00,
2013-02-04 22:40:00,35.3,19.5,30.04,East,88,0.0,-999.0,56,-99.99,,,0.00,0.0,cwc,2013-02-05 05:40:00,
2013-02-04 22:45:00,35.5,22.2,30.04,East,88,0.0,-999.0,63,-99.99,,,0.00,0.0,cwc,2013-02-05 05:45:00,
2013-02-04 22:50:00,37.0,23.0,30.02,East,88,0.0,-999.0,61,-99.99,,,0.00,0.0,cwc,2013-02-05 05:50:00,
2013-02-04 22:55:00,34.9,19.8,30.02,East,88,0.0,-999.0,58,-99.99,,,0.00,0.0,cwc,2013-02-05 05:55:00,
2013-02-04 23:00:00,34.4,18.9,30.02,East,88,0.0,-999.0,57,-99.99,,,0.00,0.0,cwc,2013-02-05 06:00:00,
2013-02-04 23:05:00,36.8,22.8,30.03,East,88,0.0,-999.0,61,-99.99,,,0.00,0.0,cwc,2013-02-05 06:05:00,
2013-02-04 23:10:00,38.9,38.9,30.03,East,88,0.0,-999.0,100,-99.99,,,0.00,0.0,cwc,2013-02-05 06:10:00,
2013-02-04 23:15:00,35.2,35.2,30.03,East,88,0.0,-999.0,100,-99.99,,,0.00,0.0,cwc,2013-02-05 06:15:00,
2013-02-04 23:20:00,34.6,34.6,29.97,East,88,0.0,-999.0,100,-99.99,,,0.00,0.0,cwc,2013-02-05 06:20:00,
2013-02-04 23:25:00,35.5,35.5,29.97,East,88,0.0,-999.0,100,-99.99,,,0.00,0.0,cwc,2013-02-05 06:25:00,
2013-02-04 23:30:00,35.9,35.9,29.97,East,88,0.0,-999.0,100,-99.99,,,0.00,0.0,cwc,2013-02-05 06:30:00,
2013-02-04 23:35:00,38.0,2.0,29.97,East,88,0.0,-999.0,0,-99.99,,,0.00,0.0,cwc,2013-02-05 06:35:00,
2013-02-04 23:40:00,41.2,5.2,29.97,East,88,0.0,-999.0,0,-99.99,,,0.00,0.0,cwc,2013-02-05 06:40:00,
2013-02-04 23:45:00,36.3,36.3,29.97,East,88,0.0,-999.0,100,-99.99,,,0.00,0.0,cwc,2013-02-05 06:45:00,
2013-02-04 23:50:00,33.8,33.8,29.95,East,88,0.0,-999.0,100,-99.99,,,0.00,0.0,cwc,2013-02-05 06:50:00,
2013-02-04 23:55:00,35.2,35.2,29.95,East,88,0.0,-999.0,100,-99.99,,,0.00,0.0,cwc,2013-02-05 06:55:00,